sensor_id;sensor_type;location;lat;lon;timestamp;pressure;altitude;pressure_sealevel;temperature;humidity
42887;BME280;29032;56.028;92.904;2024-02-15T00:04:07;97983.06;;;-9.84;39.70
42887;BME280;29032;56.028;92.904;2024-02-15T00:09:11;98002.75;;;-9.93;39.49
42887;BME280;29032;56.028;92.904;2024-02-15T00:14:13;98005.28;;;-10.17;40.10
42887;BME280;29032;56.028;92.904;2024-02-15T00:19:15;98006.53;;;-10.08;39.23
42887;BME280;29032;56.028;92.904;2024-02-15T00:24:19;98028.13;;;-10.27;39.24
42887;BME280;29032;56.028;92.904;2024-02-15T00:29:21;98039.00;;;-10.58;39.94
42887;BME280;29032;56.028;92.904;2024-02-15T00:34:23;98043.44;;;-11.04;39.37
42887;BME280;29032;56.028;92.904;2024-02-15T00:39:27;98064.69;;;-11.37;37.73
42887;BME280;29032;56.028;92.904;2024-02-15T00:44:29;98069.22;;;-11.56;36.75
42887;BME280;29032;56.028;92.904;2024-02-15T00:49:31;98080.34;;;-11.89;37.18
42887;BME280;29032;56.028;92.904;2024-02-15T00:54:35;98083.94;;;-11.92;37.55
42887;BME280;29032;56.028;92.904;2024-02-15T00:59:37;98103.41;;;-11.88;38.13
42887;BME280;29032;56.028;92.904;2024-02-15T01:04:39;98106.13;;;-11.53;36.58
42887;BME280;29032;56.028;92.904;2024-02-15T01:09:43;98107.06;;;-11.82;36.53
42887;BME280;29032;56.028;92.904;2024-02-15T01:14:45;98109.00;;;-11.82;37.30
42887;BME280;29032;56.028;92.904;2024-02-15T01:19:47;98119.81;;;-11.82;36.79
42887;BME280;29032;56.028;92.904;2024-02-15T01:30:12;98131.97;;;-11.43;36.86
42887;BME280;29032;56.028;92.904;2024-02-15T01:35:14;98131.47;;;-11.29;36.61
42887;BME280;29032;56.028;92.904;2024-02-15T01:40:17;98135.38;;;-11.30;36.64
42887;BME280;29032;56.028;92.904;2024-02-15T01:45:20;98153.97;;;-11.32;36.48
42887;BME280;29032;56.028;92.904;2024-02-15T01:50:23;98167.03;;;-11.30;36.14
42887;BME280;29032;56.028;92.904;2024-02-15T01:55:27;98146.19;;;-11.30;36.00
42887;BME280;29032;56.028;92.904;2024-02-15T02:00:30;98158.25;;;-11.21;36.16
42887;BME280;29032;56.028;92.904;2024-02-15T02:05:32;98169.28;;;-11.29;35.42
42887;BME280;29032;56.028;92.904;2024-02-15T02:10:36;98174.06;;;-11.33;35.81
42887;BME280;29032;56.028;92.904;2024-02-15T02:15:39;98178.50;;;-11.39;36.14
42887;BME280;29032;56.028;92.904;2024-02-15T02:20:41;98188.78;;;-11.46;36.47
42887;BME280;29032;56.028;92.904;2024-02-15T02:25:45;98191.47;;;-11.46;36.32
42887;BME280;29032;56.028;92.904;2024-02-15T02:30:47;98196.13;;;-11.47;36.80
42887;BME280;29032;56.028;92.904;2024-02-15T02:35:49;98205.22;;;-11.66;36.63
42887;BME280;29032;56.028;92.904;2024-02-15T02:40:53;98223.78;;;-11.68;36.51
42887;BME280;29032;56.028;92.904;2024-02-15T02:45:55;98219.06;;;-11.77;36.74
42887;BME280;29032;56.028;92.904;2024-02-15T02:50:57;98235.78;;;-11.82;36.81
42887;BME280;29032;56.028;92.904;2024-02-15T02:56:01;98241.94;;;-11.82;38.55
42887;BME280;29032;56.028;92.904;2024-02-15T03:01:03;98247.75;;;-11.70;38.59
42887;BME280;29032;56.028;92.904;2024-02-15T03:06:05;98248.53;;;-11.70;39.70
42887;BME280;29032;56.028;92.904;2024-02-15T03:11:09;98251.09;;;-11.66;38.58
42887;BME280;29032;56.028;92.904;2024-02-15T03:16:11;98273.97;;;-11.58;37.23
42887;BME280;29032;56.028;92.904;2024-02-15T03:21:13;98275.06;;;-11.56;38.81
42887;BME280;29032;56.028;92.904;2024-02-15T03:26:26;98273.81;;;-11.29;38.20
42887;BME280;29032;56.028;92.904;2024-02-15T03:31:31;98282.91;;;-11.36;38.40
42887;BME280;29032;56.028;92.904;2024-02-15T03:36:34;98288.28;;;-11.36;38.07
42887;BME280;29032;56.028;92.904;2024-02-15T03:41:37;98292.75;;;-11.42;37.17
42887;BME280;29032;56.028;92.904;2024-02-15T03:46:39;98294.38;;;-11.70;36.06
42887;BME280;29032;56.028;92.904;2024-02-15T03:51:41;98290.72;;;-11.76;37.14
42887;BME280;29032;56.028;92.904;2024-02-15T03:56:51;98291.56;;;-11.66;37.45
42887;BME280;29032;56.028;92.904;2024-02-15T04:01:53;98313.16;;;-11.66;37.27
42887;BME280;29032;56.028;92.904;2024-02-15T04:06:55;98315.09;;;-11.80;37.40
42887;BME280;29032;56.028;92.904;2024-02-15T04:11:59;98327.00;;;-12.31;39.35
42887;BME280;29032;56.028;92.904;2024-02-15T04:17:01;98330.13;;;-12.62;38.39
42887;BME280;29032;56.028;92.904;2024-02-15T04:22:03;98323.94;;;-12.46;37.66
42887;BME280;29032;56.028;92.904;2024-02-15T04:27:07;98327.91;;;-12.09;36.62
42887;BME280;29032;56.028;92.904;2024-02-15T04:32:10;98340.34;;;-11.99;38.53
42887;BME280;29032;56.028;92.904;2024-02-15T04:37:12;98341.91;;;-12.14;38.23
42887;BME280;29032;56.028;92.904;2024-02-15T04:42:16;98344.59;;;-12.14;38.53
42887;BME280;29032;56.028;92.904;2024-02-15T04:47:18;98357.09;;;-12.20;36.81
42887;BME280;29032;56.028;92.904;2024-02-15T04:52:20;98354.91;;;-12.83;37.96
42887;BME280;29032;56.028;92.904;2024-02-15T04:57:24;98358.16;;;-12.59;37.62
42887;BME280;29032;56.028;92.904;2024-02-15T05:02:26;98380.47;;;-12.92;37.97
42887;BME280;29032;56.028;92.904;2024-02-15T05:07:28;98370.72;;;-13.34;38.74
42887;BME280;29032;56.028;92.904;2024-02-15T05:12:32;98375.34;;;-13.35;39.60
42887;BME280;29032;56.028;92.904;2024-02-15T05:17:34;98362.81;;;-12.93;37.35
42887;BME280;29032;56.028;92.904;2024-02-15T05:22:36;98376.97;;;-12.88;36.72
42887;BME280;29032;56.028;92.904;2024-02-15T05:27:40;98374.69;;;-13.06;34.55
42887;BME280;29032;56.028;92.904;2024-02-15T05:32:42;98381.84;;;-12.83;33.03
42887;BME280;29032;56.028;92.904;2024-02-15T05:37:44;98388.56;;;-12.92;30.70
42887;BME280;29032;56.028;92.904;2024-02-15T05:42:47;98394.13;;;-13.15;30.94
42887;BME280;29032;56.028;92.904;2024-02-15T05:47:50;98389.75;;;-13.25;30.52
42887;BME280;29032;56.028;92.904;2024-02-15T05:52:52;98396.13;;;-13.35;30.70
42887;BME280;29032;56.028;92.904;2024-02-15T05:57:55;98411.50;;;-13.36;31.21
42887;BME280;29032;56.028;92.904;2024-02-15T06:02:58;98422.72;;;-13.21;31.22
42887;BME280;29032;56.028;92.904;2024-02-15T06:08:00;98423.31;;;-13.13;30.42
42887;BME280;29032;56.028;92.904;2024-02-15T06:13:04;98434.16;;;-13.17;30.83
42887;BME280;29032;56.028;92.904;2024-02-15T06:18:06;98437.34;;;-13.22;30.99
42887;BME280;29032;56.028;92.904;2024-02-15T06:23:08;98445.44;;;-13.06;30.53
42887;BME280;29032;56.028;92.904;2024-02-15T06:28:11;98428.47;;;-13.03;29.93
42887;BME280;29032;56.028;92.904;2024-02-15T06:33:14;98436.50;;;-13.19;29.68
42887;BME280;29032;56.028;92.904;2024-02-15T06:38:16;98453.81;;;-13.20;30.44
42887;BME280;29032;56.028;92.904;2024-02-15T06:43:39;98447.72;;;-13.04;30.32
42887;BME280;29032;56.028;92.904;2024-02-15T06:48:42;98454.81;;;-13.30;30.33
42887;BME280;29032;56.028;92.904;2024-02-15T06:53:44;98448.03;;;-13.55;31.15
42887;BME280;29032;56.028;92.904;2024-02-15T06:58:49;98461.81;;;-13.33;30.96
42887;BME280;29032;56.028;92.904;2024-02-15T07:03:51;98470.97;;;-13.30;30.91
42887;BME280;29032;56.028;92.904;2024-02-15T07:08:53;98475.13;;;-13.26;31.13
42887;BME280;29032;56.028;92.904;2024-02-15T07:13:57;98479.34;;;-13.08;32.43
42887;BME280;29032;56.028;92.904;2024-02-15T07:18:59;98486.72;;;-12.76;31.27
42887;BME280;29032;56.028;92.904;2024-02-15T07:24:01;98506.91;;;-12.68;31.58
42887;BME280;29032;56.028;92.904;2024-02-15T07:29:05;98504.88;;;-12.80;31.41
42887;BME280;29032;56.028;92.904;2024-02-15T07:34:07;98504.59;;;-12.86;30.06
42887;BME280;29032;56.028;92.904;2024-02-15T07:39:09;98494.84;;;-12.96;30.02
42887;BME280;29032;56.028;92.904;2024-02-15T07:44:13;98497.25;;;-13.18;29.99
42887;BME280;29032;56.028;92.904;2024-02-15T07:49:15;98506.72;;;-13.30;30.30
42887;BME280;29032;56.028;92.904;2024-02-15T07:54:17;98511.44;;;-13.54;30.71
42887;BME280;29032;56.028;92.904;2024-02-15T07:59:21;98527.56;;;-13.73;30.73
42887;BME280;29032;56.028;92.904;2024-02-15T08:04:23;98536.72;;;-13.71;31.49
42887;BME280;29032;56.028;92.904;2024-02-15T08:09:25;98533.09;;;-13.61;31.50
42887;BME280;29032;56.028;92.904;2024-02-15T08:14:29;98537.28;;;-13.60;31.97
42887;BME280;29032;56.028;92.904;2024-02-15T08:19:31;98533.75;;;-13.77;33.04
42887;BME280;29032;56.028;92.904;2024-02-15T08:24:33;98552.94;;;-13.75;33.59
42887;BME280;29032;56.028;92.904;2024-02-15T08:29:37;98545.69;;;-13.58;33.64
42887;BME280;29032;56.028;92.904;2024-02-15T08:34:39;98567.56;;;-13.56;32.66
42887;BME280;29032;56.028;92.904;2024-02-15T08:39:41;98549.13;;;-13.77;32.40
42887;BME280;29032;56.028;92.904;2024-02-15T08:44:45;98564.78;;;-13.72;32.77
42887;BME280;29032;56.028;92.904;2024-02-15T08:49:47;98567.53;;;-13.76;32.04
42887;BME280;29032;56.028;92.904;2024-02-15T08:54:49;98563.63;;;-13.71;32.97
42887;BME280;29032;56.028;92.904;2024-02-15T08:59:53;98567.59;;;-13.79;32.49
42887;BME280;29032;56.028;92.904;2024-02-15T09:04:55;98575.97;;;-13.73;32.51
42887;BME280;29032;56.028;92.904;2024-02-15T09:09:57;98579.13;;;-13.79;31.60
42887;BME280;29032;56.028;92.904;2024-02-15T09:15:01;98586.56;;;-13.86;31.70
42887;BME280;29032;56.028;92.904;2024-02-15T09:20:05;98582.00;;;-14.13;30.47
42887;BME280;29032;56.028;92.904;2024-02-15T09:25:09;98597.00;;;-14.39;31.00
42887;BME280;29032;56.028;92.904;2024-02-15T09:30:13;98604.41;;;-14.46;30.76
42887;BME280;29032;56.028;92.904;2024-02-15T09:35:16;98608.84;;;-14.60;31.18
42887;BME280;29032;56.028;92.904;2024-02-15T09:40:19;98620.13;;;-14.72;30.63
42887;BME280;29032;56.028;92.904;2024-02-15T09:45:22;98633.91;;;-15.00;31.74
42887;BME280;29032;56.028;92.904;2024-02-15T09:50:25;98630.72;;;-15.22;31.23
42887;BME280;29032;56.028;92.904;2024-02-15T09:55:34;98649.50;;;-15.26;31.00
42887;BME280;29032;56.028;92.904;2024-02-15T10:00:38;98660.38;;;-15.36;31.31
42887;BME280;29032;56.028;92.904;2024-02-15T10:05:40;98652.47;;;-15.17;31.32
42887;BME280;29032;56.028;92.904;2024-02-15T10:10:43;98630.47;;;-15.35;31.71
42887;BME280;29032;56.028;92.904;2024-02-15T10:15:46;98646.13;;;-15.30;31.87
42887;BME280;29032;56.028;92.904;2024-02-15T10:20:57;98640.53;;;-15.46;31.07
42887;BME280;29032;56.028;92.904;2024-02-15T10:26:00;98647.78;;;-15.88;31.43
42887;BME280;29032;56.028;92.904;2024-02-15T10:31:07;98652.38;;;-16.33;32.27
42887;BME280;29032;56.028;92.904;2024-02-15T10:36:10;98664.19;;;-16.27;31.72
42887;BME280;29032;56.028;92.904;2024-02-15T10:41:12;98680.00;;;-16.47;32.21
42887;BME280;29032;56.028;92.904;2024-02-15T10:46:16;98685.09;;;-16.70;32.02
42887;BME280;29032;56.028;92.904;2024-02-15T10:51:19;98694.53;;;-16.48;32.13
42887;BME280;29032;56.028;92.904;2024-02-15T10:56:26;98712.41;;;-16.31;32.25
42887;BME280;29032;56.028;92.904;2024-02-15T11:01:30;98720.09;;;-16.33;32.39
42887;BME280;29032;56.028;92.904;2024-02-15T11:06:35;98725.53;;;-16.58;32.03
42887;BME280;29032;56.028;92.904;2024-02-15T11:11:40;98716.53;;;-16.96;32.66
42887;BME280;29032;56.028;92.904;2024-02-15T11:16:44;98750.97;;;-17.19;32.96
42887;BME280;29032;56.028;92.904;2024-02-15T11:21:56;98762.06;;;-17.24;33.69
42887;BME280;29032;56.028;92.904;2024-02-15T11:26:59;98770.84;;;-17.24;33.19
42887;BME280;29032;56.028;92.904;2024-02-15T11:32:03;98778.50;;;-17.26;32.96
42887;BME280;29032;56.028;92.904;2024-02-15T11:37:05;98785.75;;;-17.37;33.15
42887;BME280;29032;56.028;92.904;2024-02-15T11:42:27;98784.59;;;-17.54;33.67
42887;BME280;29032;56.028;92.904;2024-02-15T11:47:32;98789.16;;;-17.58;33.86
42887;BME280;29032;56.028;92.904;2024-02-15T11:52:34;98799.88;;;-17.61;33.39
42887;BME280;29032;56.028;92.904;2024-02-15T11:57:37;98813.59;;;-17.84;34.20
42887;BME280;29032;56.028;92.904;2024-02-15T12:08:01;98825.75;;;-18.12;33.11
42887;BME280;29032;56.028;92.904;2024-02-15T12:13:03;98824.09;;;-18.41;34.24
42887;BME280;29032;56.028;92.904;2024-02-15T12:18:17;98841.69;;;-18.26;33.05
42887;BME280;29032;56.028;92.904;2024-02-15T12:23:20;98848.34;;;-18.71;33.85
42887;BME280;29032;56.028;92.904;2024-02-15T12:28:22;98855.16;;;-18.78;33.52
42887;BME280;29032;56.028;92.904;2024-02-15T12:33:25;98848.06;;;-18.52;34.28
42887;BME280;29032;56.028;92.904;2024-02-15T12:38:28;98847.13;;;-18.12;33.35
42887;BME280;29032;56.028;92.904;2024-02-15T12:43:30;98845.19;;;-18.15;33.19
42887;BME280;29032;56.028;92.904;2024-02-15T12:48:33;98857.72;;;-18.26;33.35
42887;BME280;29032;56.028;92.904;2024-02-15T12:53:35;98864.47;;;-18.50;33.19
42887;BME280;29032;56.028;92.904;2024-02-15T12:58:38;98879.34;;;-18.53;33.71
42887;BME280;29032;56.028;92.904;2024-02-15T13:03:41;98880.78;;;-18.62;33.59
42887;BME280;29032;56.028;92.904;2024-02-15T13:08:43;98889.00;;;-18.20;34.15
42887;BME280;29032;56.028;92.904;2024-02-15T13:13:45;98888.44;;;-18.57;32.84
42887;BME280;29032;56.028;92.904;2024-02-15T13:18:49;98907.03;;;-18.71;33.00
42887;BME280;29032;56.028;92.904;2024-02-15T13:23:51;98901.72;;;-19.23;33.41
42887;BME280;29032;56.028;92.904;2024-02-15T13:28:53;98911.28;;;-19.15;33.89
42887;BME280;29032;56.028;92.904;2024-02-15T13:33:57;98908.69;;;-19.48;33.53
42887;BME280;29032;56.028;92.904;2024-02-15T13:38:59;98914.53;;;-20.06;34.37
42887;BME280;29032;56.028;92.904;2024-02-15T13:44:01;98903.22;;;-19.96;35.25
42887;BME280;29032;56.028;92.904;2024-02-15T13:49:05;98902.22;;;-19.88;33.93
42887;BME280;29032;56.028;92.904;2024-02-15T13:54:07;98917.13;;;-19.80;33.83
42887;BME280;29032;56.028;92.904;2024-02-15T13:59:09;98929.72;;;-19.77;34.20
42887;BME280;29032;56.028;92.904;2024-02-15T14:04:13;98923.00;;;-19.64;33.39
42887;BME280;29032;56.028;92.904;2024-02-15T14:09:15;98937.69;;;-19.43;34.30
42887;BME280;29032;56.028;92.904;2024-02-15T14:14:17;98935.63;;;-19.20;34.88
42887;BME280;29032;56.028;92.904;2024-02-15T14:19:21;98944.63;;;-19.35;35.78
42887;BME280;29032;56.028;92.904;2024-02-15T14:24:41;98956.25;;;-19.10;34.91
42887;BME280;29032;56.028;92.904;2024-02-15T14:29:43;98952.47;;;-19.09;34.14
42887;BME280;29032;56.028;92.904;2024-02-15T14:34:48;98957.41;;;-19.51;34.57
42887;BME280;29032;56.028;92.904;2024-02-15T14:39:50;98970.47;;;-19.73;35.41
42887;BME280;29032;56.028;92.904;2024-02-15T14:44:52;98960.19;;;-20.04;35.81
42887;BME280;29032;56.028;92.904;2024-02-15T14:49:56;98967.38;;;-20.08;39.86
42887;BME280;29032;56.028;92.904;2024-02-15T14:54:58;98982.66;;;-19.72;35.57
42887;BME280;29032;56.028;92.904;2024-02-15T15:00:00;98980.16;;;-20.18;35.52
42887;BME280;29032;56.028;92.904;2024-02-15T15:05:05;98968.66;;;-20.25;34.15
42887;BME280;29032;56.028;92.904;2024-02-15T15:10:09;98986.38;;;-20.36;35.23
42887;BME280;29032;56.028;92.904;2024-02-15T15:15:12;99001.91;;;-20.38;34.62
42887;BME280;29032;56.028;92.904;2024-02-15T15:20:16;98997.50;;;-20.80;35.13
42887;BME280;29032;56.028;92.904;2024-02-15T15:25:18;98986.44;;;-21.05;35.91
42887;BME280;29032;56.028;92.904;2024-02-15T15:30:22;99003.53;;;-20.83;34.99
42887;BME280;29032;56.028;92.904;2024-02-15T15:35:26;98999.69;;;-20.86;34.72
42887;BME280;29032;56.028;92.904;2024-02-15T15:40:33;99020.78;;;-20.97;34.94
42887;BME280;29032;56.028;92.904;2024-02-15T15:45:36;99020.06;;;-21.36;36.90
42887;BME280;29032;56.028;92.904;2024-02-15T15:50:39;99021.13;;;-21.40;34.54
42887;BME280;29032;56.028;92.904;2024-02-15T15:55:41;99037.94;;;-21.52;33.90
42887;BME280;29032;56.028;92.904;2024-02-15T16:00:43;99029.97;;;-22.10;34.87
42887;BME280;29032;56.028;92.904;2024-02-15T16:05:50;99014.97;;;-22.02;35.00
42887;BME280;29032;56.028;92.904;2024-02-15T16:10:51;99024.50;;;-21.63;34.68
42887;BME280;29032;56.028;92.904;2024-02-15T16:15:54;99022.56;;;-21.23;34.82
42887;BME280;29032;56.028;92.904;2024-02-15T16:20:57;99029.03;;;-21.02;33.35
42887;BME280;29032;56.028;92.904;2024-02-15T16:26:00;99030.00;;;-21.33;33.28
42887;BME280;29032;56.028;92.904;2024-02-15T16:31:02;99027.34;;;-21.52;33.33
42887;BME280;29032;56.028;92.904;2024-02-15T16:36:06;99038.13;;;-21.84;33.66
42887;BME280;29032;56.028;92.904;2024-02-15T16:41:08;99043.94;;;-22.13;34.31
42887;BME280;29032;56.028;92.904;2024-02-15T16:46:10;99042.81;;;-22.12;34.29
42887;BME280;29032;56.028;92.904;2024-02-15T16:51:14;99069.69;;;-21.59;33.74
42887;BME280;29032;56.028;92.904;2024-02-15T16:56:17;99036.59;;;-21.85;33.37
42887;BME280;29032;56.028;92.904;2024-02-15T17:01:19;99035.97;;;-22.29;32.65
42887;BME280;29032;56.028;92.904;2024-02-15T17:06:23;99045.41;;;-22.63;33.82
42887;BME280;29032;56.028;92.904;2024-02-15T17:11:25;99046.81;;;-22.69;34.00
42887;BME280;29032;56.028;92.904;2024-02-15T17:16:29;99043.19;;;-22.61;34.43
42887;BME280;29032;56.028;92.904;2024-02-15T17:32:14;99058.47;;;-22.23;33.53
42887;BME280;29032;56.028;92.904;2024-02-15T17:37:17;99064.66;;;-22.19;33.61
42887;BME280;29032;56.028;92.904;2024-02-15T17:42:19;99058.72;;;-22.12;33.56
42887;BME280;29032;56.028;92.904;2024-02-15T17:47:21;99059.88;;;-21.94;32.85
42887;BME280;29032;56.028;92.904;2024-02-15T17:52:25;99074.63;;;-21.96;33.30
42887;BME280;29032;56.028;92.904;2024-02-15T17:57:27;99071.16;;;-22.48;33.01
42887;BME280;29032;56.028;92.904;2024-02-15T18:02:29;99060.63;;;-22.92;33.88
42887;BME280;29032;56.028;92.904;2024-02-15T18:07:33;99063.72;;;-22.58;34.73
42887;BME280;29032;56.028;92.904;2024-02-15T18:12:37;99074.81;;;-22.05;33.15
42887;BME280;29032;56.028;92.904;2024-02-15T18:17:39;99087.94;;;-21.93;32.68
42887;BME280;29032;56.028;92.904;2024-02-15T18:22:43;99089.25;;;-21.67;33.11
42887;BME280;29032;56.028;92.904;2024-02-15T18:27:45;99095.91;;;-21.38;32.68
42887;BME280;29032;56.028;92.904;2024-02-15T18:32:47;99093.31;;;-21.35;32.60
42887;BME280;29032;56.028;92.904;2024-02-15T18:37:51;99085.22;;;-21.42;33.26
42887;BME280;29032;56.028;92.904;2024-02-15T18:42:53;99084.31;;;-21.49;33.08
42887;BME280;29032;56.028;92.904;2024-02-15T18:47:55;99090.06;;;-21.83;32.63
42887;BME280;29032;56.028;92.904;2024-02-15T18:52:59;99091.59;;;-22.17;33.89
42887;BME280;29032;56.028;92.904;2024-02-15T18:58:01;99090.44;;;-22.00;33.00
42887;BME280;29032;56.028;92.904;2024-02-15T19:03:04;99097.50;;;-21.72;33.18
42887;BME280;29032;56.028;92.904;2024-02-15T19:08:07;99100.28;;;-21.85;32.12
42887;BME280;29032;56.028;92.904;2024-02-15T19:13:10;99088.25;;;-21.78;31.97
42887;BME280;29032;56.028;92.904;2024-02-15T19:18:12;99084.50;;;-21.77;32.92
42887;BME280;29032;56.028;92.904;2024-02-15T19:23:15;99094.00;;;-21.57;33.08
42887;BME280;29032;56.028;92.904;2024-02-15T19:28:18;99089.19;;;-21.32;32.97
42887;BME280;29032;56.028;92.904;2024-02-15T19:33:20;99103.31;;;-21.09;32.42
42887;BME280;29032;56.028;92.904;2024-02-15T19:38:23;99098.63;;;-21.15;31.61
42887;BME280;29032;56.028;92.904;2024-02-15T19:43:25;99091.09;;;-21.33;31.23
42887;BME280;29032;56.028;92.904;2024-02-15T19:48:27;99095.91;;;-21.38;32.32
42887;BME280;29032;56.028;92.904;2024-02-15T19:53:31;99107.28;;;-21.38;32.22
42887;BME280;29032;56.028;92.904;2024-02-15T19:58:33;99100.44;;;-21.39;32.24
42887;BME280;29032;56.028;92.904;2024-02-15T20:03:36;99105.22;;;-21.29;32.48
42887;BME280;29032;56.028;92.904;2024-02-15T20:08:39;99118.91;;;-21.27;32.46
42887;BME280;29032;56.028;92.904;2024-02-15T20:13:41;99118.50;;;-21.29;33.20
42887;BME280;29032;56.028;92.904;2024-02-15T20:19:02;99126.66;;;-21.18;32.65
42887;BME280;29032;56.028;92.904;2024-02-15T20:24:06;99127.44;;;-21.17;33.38
42887;BME280;29032;56.028;92.904;2024-02-15T20:29:08;99131.31;;;-21.15;32.67
42887;BME280;29032;56.028;92.904;2024-02-15T20:34:10;99130.66;;;-21.08;32.98
42887;BME280;29032;56.028;92.904;2024-02-15T20:39:14;99132.47;;;-20.93;34.13
42887;BME280;29032;56.028;92.904;2024-02-15T20:44:16;99130.50;;;-20.96;32.89
42887;BME280;29032;56.028;92.904;2024-02-15T20:49:18;99124.22;;;-21.07;34.29
42887;BME280;29032;56.028;92.904;2024-02-15T20:54:22;99132.19;;;-20.88;34.58
42887;BME280;29032;56.028;92.904;2024-02-15T20:59:24;99134.28;;;-20.78;33.70
42887;BME280;29032;56.028;92.904;2024-02-15T21:04:26;99131.06;;;-20.87;33.80
42887;BME280;29032;56.028;92.904;2024-02-15T21:09:30;99131.31;;;-21.15;34.15
42887;BME280;29032;56.028;92.904;2024-02-15T21:14:32;99123.31;;;-21.34;33.96
42887;BME280;29032;56.028;92.904;2024-02-15T21:19:34;99124.91;;;-21.30;33.96
42887;BME280;29032;56.028;92.904;2024-02-15T21:24:38;99129.53;;;-21.27;34.83
42887;BME280;29032;56.028;92.904;2024-02-15T21:29:40;99122.84;;;-21.20;34.18
42887;BME280;29032;56.028;92.904;2024-02-15T21:34:42;99129.25;;;-21.02;34.17
42887;BME280;29032;56.028;92.904;2024-02-15T21:39:46;99126.31;;;-20.97;33.97
42887;BME280;29032;56.028;92.904;2024-02-15T21:44:48;99126.78;;;-21.30;34.29
42887;BME280;29032;56.028;92.904;2024-02-15T21:49:50;99127.63;;;-21.45;33.98
42887;BME280;29032;56.028;92.904;2024-02-15T21:54:54;99126.72;;;-21.53;34.49
42887;BME280;29032;56.028;92.904;2024-02-15T21:59:56;99139.72;;;-21.67;33.67
42887;BME280;29032;56.028;92.904;2024-02-15T22:04:58;99144.44;;;-21.76;33.48
42887;BME280;29032;56.028;92.904;2024-02-15T22:10:02;99146.66;;;-21.78;34.26
42887;BME280;29032;56.028;92.904;2024-02-15T22:15:05;99148.53;;;-21.63;34.45
42887;BME280;29032;56.028;92.904;2024-02-15T22:20:08;99152.03;;;-21.40;34.11
42887;BME280;29032;56.028;92.904;2024-02-15T22:25:11;99155.97;;;-21.34;33.83
42887;BME280;29032;56.028;92.904;2024-02-15T22:30:14;99161.28;;;-21.34;32.91
42887;BME280;29032;56.028;92.904;2024-02-15T22:35:16;99175.38;;;-21.30;34.07
42887;BME280;29032;56.028;92.904;2024-02-15T22:40:20;99174.28;;;-21.29;33.64
42887;BME280;29032;56.028;92.904;2024-02-15T22:45:22;99179.16;;;-21.31;33.32
42887;BME280;29032;56.028;92.904;2024-02-15T22:50:24;99180.31;;;-21.47;33.17
42887;BME280;29032;56.028;92.904;2024-02-15T22:55:28;99174.91;;;-21.70;33.76
42887;BME280;29032;56.028;92.904;2024-02-15T23:00:30;99171.50;;;-21.87;33.67
42887;BME280;29032;56.028;92.904;2024-02-15T23:05:32;99177.25;;;-21.85;34.18
42887;BME280;29032;56.028;92.904;2024-02-15T23:10:36;99178.75;;;-21.68;34.03
42887;BME280;29032;56.028;92.904;2024-02-15T23:15:38;99188.63;;;-21.68;33.61
42887;BME280;29032;56.028;92.904;2024-02-15T23:20:40;99192.66;;;-21.90;33.86
42887;BME280;29032;56.028;92.904;2024-02-15T23:25:44;99190.59;;;-21.81;33.49
42887;BME280;29032;56.028;92.904;2024-02-15T23:30:46;99198.72;;;-21.90;33.75
42887;BME280;29032;56.028;92.904;2024-02-15T23:35:48;99191.56;;;-22.05;34.06
42887;BME280;29032;56.028;92.904;2024-02-15T23:40:52;99201.13;;;-22.16;33.98
42887;BME280;29032;56.028;92.904;2024-02-15T23:45:54;99210.25;;;-22.14;34.52
42887;BME280;29032;56.028;92.904;2024-02-15T23:50:56;99212.19;;;-21.98;33.71
42887;BME280;29032;56.028;92.904;2024-02-15T23:56:00;99206.63;;;-21.77;33.33
